Corona Range LRC Data

Date Time Air Temperature Relative Humidity Dewpoint Windchill Heat Index Wind Speed Wind Dir. Rain Solar Radiation Soil Temperature
2m 2m 3m 3m 10cm
US/Mountain F % F F F MPH deg in MJ/m^2 F
max avg avg
2020-08-01 00:05:00 64.5 51.2 46.1 64.5 64.5 6.2 8.7 5.8 92.6 107.1 0.00 0.0000000 82.9
2020-08-01 00:10:00 64.5 51.0 46.0 64.5 64.5 5.1 8.5 5.8 111.7 105.7 0.00 0.0000000 82.8
2020-08-01 00:15:00 64.3 52.0 46.3 64.3 64.3 7.6 7.6 5.0 105.8 98.3 0.00 0.0000000 82.7
2020-08-01 00:20:00 64.0 52.9 46.5 64.0 64.0 3.0 6.9 3.7 103.1 99.0 0.00 0.0000000 82.6
2020-08-01 00:25:00 63.7 54.4 46.9 63.7 63.7 3.3 5.5 3.8 135.7 135.1 0.00 0.0000000 82.5
2020-08-01 00:30:00 63.4 54.8 46.8 63.4 63.4 2.2 4.2 3.1 119.2 126.0 0.00 0.0000000 82.4
2020-08-01 00:35:00 63.3 54.9 46.8 63.3 63.3 2.1 4.6 2.3 84.6 84.6 0.00 0.0000000 82.3
2020-08-01 00:40:00 63.0 55.5 46.8 63.0 63.0 1.7 3.5 2.0 136.4 93.8 0.00 0.0000000 82.1
2020-08-01 00:45:00 62.9 55.7 46.9 62.9 62.9 0.0 3.5 1.6 189.5 121.8 0.00 0.0000000 82.1
2020-08-01 00:50:00 62.7 56.4 46.9 62.7 62.7 1.9 2.1 0.8 165.3 145.0 0.00 0.0000000 82.0
2020-08-01 00:55:00 62.3 57.0 46.9 62.3 62.3 0.0 2.4 1.0 124.9 151.4 0.00 0.0000000 81.9
2020-08-01 01:00:00 62.0 57.7 46.9 62.0 62.0 0.0 0.0 0.0 218.2 0.0 0.00 0.0000000 81.8
2020-08-01 01:05:00 61.8 57.6 46.7 61.8 61.8 0.8 0.8 0.1 178.7 182.8 0.00 0.0000000 81.7
2020-08-01 01:10:00 61.8 57.4 46.6 61.8 61.8 3.3 3.3 2.3 189.2 182.8 0.00 0.0000000 81.6
2020-08-01 01:15:00 61.9 57.9 46.9 61.9 61.9 3.3 4.4 3.6 181.6 193.0 0.00 0.0000000 81.5
2020-08-01 01:20:00 61.4 60.2 47.4 61.4 61.4 3.1 3.5 3.0 219.0 211.3 0.00 0.0000000 81.4
2020-08-01 01:25:00 61.1 60.7 47.4 61.1 61.1 2.6 3.3 2.8 240.3 232.0 0.00 0.0000000 81.4
2020-08-01 01:30:00 60.9 61.4 47.6 60.9 60.9 3.0 3.1 2.6 209.6 220.6 0.00 0.0000000 81.3
2020-08-01 01:35:00 60.6 62.7 47.8 60.6 60.6 3.5 3.8 3.2 241.7 222.0 0.00 0.0000000 81.2
2020-08-01 01:40:00 60.5 62.2 47.5 60.5 60.5 4.6 4.6 4.0 239.9 239.7 0.00 0.0000000 81.1
2020-08-01 01:45:00 60.7 62.2 47.7 60.7 60.7 3.7 4.7 4.1 238.9 242.5 0.00 0.0000000 81.0
2020-08-01 01:50:00 60.5 62.3 47.5 60.5 60.5 3.3 4.2 3.7 227.1 241.3 0.00 0.0000000 80.9
2020-08-01 01:55:00 60.3 63.4 47.8 60.3 60.3 2.2 3.7 2.4 239.5 226.7 0.00 0.0000000 80.8
2020-08-01 02:00:00 60.1 62.8 47.3 60.1 60.1 2.1 3.1 2.5 230.8 242.4 0.00 0.0000000 80.7
2020-08-01 02:05:00 60.0 62.9 47.3 60.0 60.0 1.3 2.4 1.9 238.7 221.4 0.00 0.0000000 80.7
2020-08-01 02:10:00 60.1 63.1 47.5 60.1 60.1 2.8 2.8 0.5 237.5 237.9 0.00 0.0000000 80.6
2020-08-01 02:15:00 60.2 62.7 47.4 60.2 60.2 2.1 3.1 2.7 249.2 233.3 0.00 0.0000000 80.5
2020-08-01 02:20:00 60.4 61.9 47.3 60.4 60.4 2.8 3.1 2.7 230.0 240.9 0.00 0.0000000 80.4
2020-08-01 02:25:00 60.3 62.9 47.6 60.3 60.3 0.0 3.3 1.9 240.2 231.2 0.00 0.0000000 80.3
2020-08-01 02:30:00 60.3 62.6 47.4 60.3 60.3 2.6 2.6 0.8 203.5 208.7 0.00 0.0000000 80.3
2020-08-01 02:35:00 60.4 62.0 47.3 60.4 60.4 1.5 4.6 3.5 214.6 194.3 0.00 0.0000000 80.2
2020-08-01 02:40:00 59.9 64.5 47.9 59.9 59.9 3.0 3.3 2.2 223.9 220.1 0.00 0.0000000 80.1
2020-08-01 02:45:00 59.8 63.0 47.2 59.8 59.8 3.7 4.6 3.6 183.7 200.9 0.00 0.0000000 80.0
2020-08-01 02:50:00 60.3 62.1 47.3 60.3 60.3 3.1 4.2 3.5 192.1 188.0 0.00 0.0000000 79.9
2020-08-01 02:55:00 60.1 63.2 47.6 60.1 60.1 3.1 3.1 2.8 211.3 203.1 0.00 0.0000000 79.8
2020-08-01 03:00:00 59.8 63.5 47.4 59.8 59.8 3.5 3.7 3.4 207.9 213.9 0.00 0.0000000 79.8
2020-08-01 03:05:00 60.2 62.7 47.4 60.2 60.2 2.6 4.0 3.1 208.0 208.4 0.00 0.0000000 79.7
2020-08-01 03:10:00 59.7 64.8 47.9 59.7 59.7 2.2 3.1 2.7 267.2 243.0 0.00 0.0000000 79.6
2020-08-01 03:15:00 58.6 68.2 48.1 58.6 58.6 3.7 3.8 2.4 257.2 268.2 0.00 0.0000000 79.5
2020-08-01 03:20:00 59.0 64.5 47.0 59.0 59.0 5.8 6.3 4.8 257.9 254.9 0.00 0.0000000 79.4
2020-08-01 03:25:00 59.6 64.5 47.6 59.6 59.6 5.6 7.4 5.8 264.0 261.1 0.00 0.0000000 79.4
2020-08-01 03:30:00 59.3 65.3 47.7 59.3 59.3 6.0 6.3 5.5 272.2 265.4 0.00 0.0000000 79.3
2020-08-01 03:35:00 59.3 65.1 47.6 59.3 59.3 3.0 6.2 4.5 247.4 258.7 0.00 0.0000000 79.2
2020-08-01 03:40:00 59.2 64.6 47.3 59.2 59.2 4.0 5.3 4.3 268.3 275.6 0.00 0.0000000 79.1
2020-08-01 03:45:00 59.3 64.2 47.3 59.3 59.3 3.8 5.1 4.4 277.3 273.5 0.00 0.0000000 79.0
2020-08-01 03:50:00 58.6 66.9 47.6 58.6 58.6 2.8 4.6 3.6 302.8 278.2 0.00 0.0000000 79.0
2020-08-01 03:55:00 58.1 68.3 47.7 58.1 58.1 1.3 3.1 1.9 3.9 330.1 0.00 0.0000000 78.9
2020-08-01 04:00:00 57.5 70.0 47.7 57.5 57.5 3.3 4.0 2.2 114.0 72.4 0.00 0.0000000 78.8
2020-08-01 04:05:00 57.2 70.1 47.5 57.2 57.2 1.7 3.7 2.0 64.6 94.2 0.00 0.0000000 78.7
2020-08-01 04:10:00 56.6 72.5 47.9 56.6 56.6 4.0 4.7 3.4 67.2 70.1 0.00 0.0000000 78.7
2020-08-01 04:15:00 56.5 72.5 47.7 56.5 56.5 0.0 3.7 2.4 27.0 57.5 0.00 0.0000000 78.6
2020-08-01 04:20:00 56.6 71.5 47.5 56.6 56.6 2.8 3.0 1.3 31.4 37.8 0.00 0.0000000 78.5
2020-08-01 04:25:00 56.5 72.7 47.8 56.5 56.5 3.3 3.5 3.1 4.9 14.0 0.00 0.0000000 78.5
2020-08-01 04:30:00 55.9 73.8 47.6 55.9 55.9 3.8 4.2 3.8 327.8 358.5 0.00 0.0000000 78.4
2020-08-01 04:35:00 55.7 74.2 47.6 55.7 55.7 3.8 4.0 3.6 333.5 336.9 0.00 0.0000000 78.3
2020-08-01 04:40:00 56.0 73.4 47.7 56.0 56.0 3.5 3.8 3.6 305.7 322.6 0.00 0.0000000 78.2
2020-08-01 04:45:00 56.2 73.0 47.6 56.2 56.2 3.7 4.0 3.6 306.7 306.2 0.00 0.0000000 78.1
2020-08-01 04:50:00 56.5 71.1 47.3 56.5 56.5 3.3 3.8 3.5 294.8 299.0 0.00 0.0000000 78.1
2020-08-01 04:55:00 56.9 70.4 47.4 56.9 56.9 3.7 4.2 3.8 302.4 299.5 0.00 0.0000000 78.0
2020-08-01 05:00:00 56.7 71.7 47.7 56.7 56.7 3.7 4.6 3.9 312.6 305.0 0.00 0.0000000 77.9
2020-08-01 05:05:00 55.8 74.1 47.7 55.8 55.8 3.7 4.2 4.0 288.9 311.1 0.00 0.0000000 77.8
2020-08-01 05:10:00 55.9 74.3 47.8 55.9 55.9 2.8 4.0 3.4 311.3 306.6 0.00 0.0000000 77.8
2020-08-01 05:15:00 55.6 74.8 47.7 55.6 55.6 3.3 3.5 3.2 285.5 300.3 0.00 0.0000000 77.7
2020-08-01 05:20:00 54.4 78.5 47.9 54.4 54.4 3.0 3.7 3.2 267.6 259.2 0.00 0.0000000 77.6
2020-08-01 05:25:00 54.0 80.0 48.0 54.0 54.0 1.0 3.0 1.7 236.8 244.4 0.00 0.0000000 77.6
2020-08-01 05:30:00 53.8 80.6 48.0 53.8 53.8 2.8 2.8 1.4 233.3 230.6 0.00 0.0000000 77.5
2020-08-01 05:35:00 53.6 81.7 48.1 53.6 53.6 3.3 3.3 2.8 226.7 233.4 0.00 0.0000000 77.4
2020-08-01 05:40:00 53.3 83.2 48.3 53.3 53.3 3.7 4.2 3.6 231.5 224.6 0.00 0.0000000 77.3
2020-08-01 05:45:00 53.1 83.3 48.2 53.1 53.1 3.5 4.4 3.9 248.8 244.1 0.00 0.0000000 77.3
2020-08-01 05:50:00 53.3 82.5 48.2 53.3 53.3 3.1 3.3 2.9 259.9 251.9 0.00 0.0000000 77.2
2020-08-01 05:55:00 53.7 81.1 48.1 53.7 53.7 4.0 5.3 4.0 260.0 268.5 0.00 0.0000000 77.1
2020-08-01 06:00:00 53.7 81.3 48.1 53.7 53.7 5.5 5.5 4.4 284.8 285.1 0.00 0.0000000 77.1
2020-08-01 06:05:00 54.0 80.4 48.1 54.0 54.0 5.1 5.1 4.2 288.7 286.5 0.00 0.0000000 77.0
2020-08-01 06:10:00 54.0 79.9 47.9 54.0 54.0 5.1 6.3 5.0 275.2 272.6 0.00 0.0000000 76.9
2020-08-01 06:15:00 53.9 80.8 48.1 53.9 53.9 2.6 5.6 3.5 205.9 247.9 0.00 0.0000000 76.8
2020-08-01 06:20:00 53.5 81.9 48.1 53.5 53.5 3.8 4.2 3.4 234.0 219.6 0.00 0.0008854 76.8
2020-08-01 06:25:00 53.8 80.7 48.0 53.8 53.8 4.2 4.4 3.9 243.5 241.9 0.00 0.0028285 76.7
2020-08-01 06:30:00 53.6 81.3 48.0 53.6 53.6 3.1 5.1 4.3 219.5 225.6 0.00 0.0050379 76.7
2020-08-01 06:35:00 53.7 81.7 48.3 53.7 53.7 2.4 3.3 2.5 224.6 218.3 0.00 0.0072600 76.6
2020-08-01 06:40:00 54.3 80.1 48.3 54.3 54.3 3.5 4.0 3.2 233.1 221.0 0.00 0.0097777 76.5
2020-08-01 06:45:00 54.9 79.4 48.7 54.9 54.9 2.6 4.4 3.5 231.7 215.8 0.00 0.0120450 76.4
2020-08-01 06:50:00 55.9 77.3 48.9 55.9 55.9 3.1 3.5 2.5 262.3 248.1 0.00 0.0144923 76.4
2020-08-01 06:55:00 56.9 75.3 49.1 56.9 56.9 1.2 3.7 2.3 199.2 204.6 0.00 0.0168827 76.3
2020-08-01 07:00:00 57.8 73.3 49.3 57.8 57.8 2.2 3.0 2.0 234.4 216.4 0.00 0.0193442 76.2
2020-08-01 07:05:00 58.9 70.8 49.4 58.9 58.9 3.7 4.4 3.5 234.8 235.9 0.00 0.0220845 76.2
2020-08-01 07:10:00 60.1 68.5 49.7 60.1 60.1 3.0 3.8 3.3 235.1 232.8 0.00 0.0247251 76.1
2020-08-01 07:15:00 61.4 63.8 49.1 61.4 61.4 3.3 4.4 3.2 249.2 241.3 0.00 0.0274324 76.1
2020-08-01 07:20:00 62.7 61.4 49.2 62.7 62.7 2.6 3.7 3.0 231.1 235.9 0.00 0.0299192 76.0
2020-08-01 07:25:00 63.4 61.4 49.9 63.4 63.4 3.1 3.8 3.0 248.3 248.2 0.00 0.0324199 76.0
2020-08-01 07:30:00 63.9 58.5 49.1 63.9 63.9 4.7 6.9 4.2 276.2 255.3 0.00 0.0350816 75.9
2020-08-01 07:35:00 63.6 59.1 49.1 63.6 63.6 4.9 6.5 4.9 289.0 270.7 0.00 0.0379020 75.9
2020-08-01 07:40:00 64.5 57.7 49.3 64.5 64.5 4.2 5.3 4.1 261.2 279.6 0.00 0.0411459 75.8
2020-08-01 07:45:00 65.3 57.0 49.7 65.3 65.3 3.5 5.3 3.7 328.1 295.9 0.00 0.0441284 75.8
2020-08-01 07:50:00 65.9 54.5 49.1 65.9 65.9 4.6 5.6 4.2 317.3 313.1 0.00 0.0475150 75.8
2020-08-01 07:55:00 66.3 56.5 50.4 66.3 66.3 3.0 6.0 4.4 317.2 312.1 0.00 0.0507182 75.7
2020-08-01 08:00:00 66.8 54.4 49.8 66.8 66.8 5.1 6.0 4.7 323.7 320.0 0.00 0.0543156 75.7
2020-08-01 08:05:00 67.1 54.0 49.9 67.1 67.1 3.7 5.6 4.6 312.8 317.1 0.00 0.0574936 75.7
2020-08-01 08:10:00 67.5 54.7 50.6 67.5 67.5 3.8 5.8 4.1 302.8 296.2 0.00 0.0602635 75.6
2020-08-01 08:15:00 68.1 53.0 50.3 68.1 68.1 4.4 6.2 4.6 344.3 316.7 0.00 0.0637216 75.6
2020-08-01 08:20:00 68.2 52.9 50.4 68.2 68.2 4.4 6.5 4.8 315.9 331.3 0.00 0.0671916 75.6
2020-08-01 08:25:00 69.1 49.8 49.6 69.1 69.1 6.0 6.0 4.7 323.2 331.5 0.00 0.0707640 75.6
2020-08-01 08:30:00 69.3 50.8 50.3 69.3 69.3 5.6 6.2 4.7 324.5 325.2 0.00 0.0737293 75.6
2020-08-01 08:35:00 69.8 50.4 50.5 69.8 69.8 3.5 5.6 4.2 281.9 317.5 0.00 0.0763947 75.5
2020-08-01 08:40:00 70.6 48.7 50.3 70.6 70.6 4.6 5.8 4.1 316.4 275.1 0.00 0.0786584 75.5
2020-08-01 08:45:00 70.3 50.4 51.0 70.3 70.3 4.0 6.3 4.6 331.6 305.9 0.00 0.0819184 75.5
2020-08-01 08:50:00 70.7 49.2 50.7 70.7 70.7 5.1 6.5 4.6 315.5 311.3 0.00 0.0855278 75.5
2020-08-01 08:55:00 71.5 48.8 51.2 71.5 71.5 3.1 6.0 4.3 268.4 300.8 0.00 0.0884818 75.6
2020-08-01 09:00:00 71.9 46.8 50.5 71.9 71.9 2.8 6.2 4.0 246.1 288.5 0.00 0.0916911 75.6
2020-08-01 09:05:00 72.4 47.3 51.2 72.4 72.4 2.8 5.8 3.6 3.3 267.5 0.00 0.0947939 75.6
2020-08-01 09:10:00 72.7 45.5 50.4 72.7 72.7 2.2 4.9 3.3 41.8 334.4 0.00 0.0983195 75.6
2020-08-01 09:15:00 72.7 47.0 51.4 72.7 72.7 3.0 5.6 3.9 15.9 339.4 0.00 0.1016851 75.6
2020-08-01 09:20:00 73.1 46.2 51.2 73.1 73.1 3.0 5.5 3.5 321.6 308.5 0.00 0.1043791 75.7
2020-08-01 09:25:00 74.2 44.5 51.2 74.2 74.2 3.5 3.7 2.0 295.2 287.8 0.00 0.1068822 75.7
2020-08-01 09:30:00 74.2 44.0 50.9 74.2 74.2 1.2 5.5 3.0 265.4 311.0 0.00 0.1091695 75.8
2020-08-01 09:35:00 74.8 42.6 50.5 74.8 74.8 4.7 9.7 3.7 12.5 341.8 0.00 0.1116565 75.9
2020-08-01 09:40:00 75.2 42.9 51.1 75.2 75.2 3.3 6.9 3.8 301.0 5.6 0.00 0.1149607 75.9
2020-08-01 09:45:00 75.8 42.4 51.4 75.8 75.8 4.0 7.1 2.8 339.8 322.3 0.00 0.1171611 76.0
2020-08-01 09:50:00 75.3 43.1 51.4 75.3 75.3 3.7 4.7 3.2 6.1 320.9 0.00 0.1195992 76.1
2020-08-01 09:55:00 76.0 41.8 51.2 76.0 76.0 4.0 4.6 2.1 60.9 332.5 0.00 0.1225805 76.2
2020-08-01 10:00:00 75.9 40.7 50.3 75.9 75.9 2.2 6.0 3.7 70.1 55.2 0.00 0.1253306 76.2
2020-08-01 10:05:00 76.4 39.9 50.2 76.4 76.4 5.6 6.0 3.4 9.6 325.7 0.00 0.1284097 76.3
2020-08-01 10:10:00 76.1 39.3 49.6 76.1 76.1 2.4 6.3 4.4 346.7 323.3 0.00 0.1319726 76.4
2020-08-01 10:15:00 76.9 36.9 48.5 76.9 76.9 3.3 5.3 3.1 59.5 42.7 0.00 0.1341940 76.5
2020-08-01 10:20:00 77.3 34.0 46.7 77.3 77.3 6.7 8.5 4.9 336.2 23.0 0.00 0.1356664 76.7
2020-08-01 10:25:00 76.6 39.3 50.0 76.6 76.6 4.2 7.4 4.3 29.7 334.1 0.00 0.1386643 76.8
2020-08-01 10:30:00 77.5 37.6 49.6 77.5 77.5 3.7 7.8 4.3 49.6 51.1 0.00 0.1423290 76.9
2020-08-01 10:35:00 78.0 37.7 50.1 78.0 78.0 2.1 8.0 3.9 43.4 78.3 0.00 0.1443676 77.1
2020-08-01 10:40:00 78.2 35.9 49.0 78.2 78.2 2.8 5.1 3.2 16.3 327.5 0.00 0.1465661 77.2
2020-08-01 10:45:00 78.5 36.9 50.0 78.5 78.5 6.2 6.2 4.4 92.7 98.0 0.00 0.1468394 77.3
2020-08-01 10:50:00 78.7 33.8 47.8 78.7 78.7 4.9 6.9 5.2 24.5 84.9 0.00 0.1489687 77.5
2020-08-01 10:55:00 79.0 35.1 49.2 79.0 79.0 3.5 9.2 4.2 11.5 57.4 0.00 0.1523648 77.6
2020-08-01 11:00:00 79.1 32.6 47.2 79.1 79.1 4.9 9.0 5.6 5.8 38.0 0.00 0.1552429 77.8
2020-08-01 11:05:00 79.2 31.3 46.2 79.2 79.2 3.8 7.8 5.9 21.2 24.3 0.00 0.1570907 78.0
2020-08-01 11:10:00 80.0 29.8 45.6 80.0 80.0 6.0 8.5 5.1 329.0 5.2 0.00 0.1590142 78.2
2020-08-01 11:15:00 79.9 30.5 46.1 79.9 79.9 4.6 7.6 5.7 314.2 324.5 0.00 0.1613939 78.4
2020-08-01 11:20:00 79.7 31.1 46.5 79.7 79.7 5.3 6.7 5.1 55.6 346.8 0.00 0.1617840 78.5
2020-08-01 11:25:00 80.6 28.5 44.9 80.6 80.6 5.8 5.8 4.1 58.6 129.5 0.00 0.1632500 78.7
2020-08-01 11:30:00 80.9 25.8 42.6 80.9 80.9 4.4 10.3 7.1 64.7 47.4 0.00 0.1661862 78.9
2020-08-01 11:35:00 81.0 29.3 46.0 81.0 81.0 4.4 4.7 2.9 243.1 176.6 0.00 0.1675440 79.1
2020-08-01 11:40:00 82.0 25.8 43.5 82.0 82.0 1.0 4.7 2.6 233.1 326.4 0.00 0.1685861 79.3
2020-08-01 11:45:00 81.4 26.7 43.9 81.4 81.4 5.3 8.5 4.9 12.9 354.7 0.00 0.1697014 79.5
2020-08-01 11:50:00 81.5 26.0 43.3 81.5 81.5 3.1 6.5 4.4 215.9 355.0 0.00 0.1718241 79.7
2020-08-01 11:55:00 81.7 24.8 42.3 81.7 81.7 2.8 5.3 3.2 151.6 218.6 0.00 0.1717907 79.9
2020-08-01 12:00:00 81.7 24.6 42.0 81.7 81.7 4.4 6.2 3.8 161.7 189.0 0.00 0.1731599 80.1
2020-08-01 12:05:00 82.9 24.5 42.9 82.9 82.9 2.6 4.6 2.5 37.3 139.9 0.00 0.1750639 80.4
2020-08-01 12:10:00 82.6 25.6 43.8 82.6 82.6 2.1 5.1 2.6 308.7 83.0 0.00 0.1752664 80.6
2020-08-01 12:15:00 82.3 26.2 44.2 82.3 82.3 3.7 7.8 4.7 306.2 319.1 0.00 0.1772142 80.8
2020-08-01 12:20:00 82.8 22.3 40.4 82.8 82.8 4.6 5.6 3.9 21.2 309.9 0.00 0.1779881 81.0
2020-08-01 12:25:00 82.8 23.5 41.8 82.8 82.8 3.1 6.3 4.3 25.3 68.6 0.00 0.1800184 81.2
2020-08-01 12:30:00 82.9 24.9 43.4 82.9 82.9 5.3 9.7 5.8 57.6 27.6 0.00 0.1818990 81.4
2020-08-01 12:35:00 82.3 24.5 42.4 82.3 82.3 4.4 10.8 6.3 84.9 73.3 0.00 0.1826044 81.7
2020-08-01 12:40:00 81.8 25.3 42.8 81.8 81.8 0.0 7.2 3.9 221.7 168.5 0.00 0.1815576 81.9
2020-08-01 12:45:00 84.1 23.5 42.9 84.1 84.1 2.6 8.5 3.5 108.0 137.8 0.00 0.1833709 82.1
2020-08-01 12:50:00 83.7 22.8 41.7 83.7 83.7 5.1 7.6 4.9 89.3 117.8 0.00 0.1820859 82.3
2020-08-01 12:55:00 83.5 23.6 42.5 83.5 83.5 8.5 8.5 4.8 135.1 145.7 0.00 0.1831509 82.6
2020-08-01 13:00:00 83.2 22.3 40.8 83.2 83.2 3.1 8.0 5.5 64.2 121.9 0.00 0.1830335 82.8
2020-08-01 13:05:00 84.0 21.8 40.8 84.0 84.0 5.3 8.5 4.6 18.2 21.0 0.00 0.1834243 83.0
2020-08-01 13:10:00 83.7 24.3 43.5 83.7 83.7 6.9 11.2 7.1 303.0 335.5 0.00 0.1840422 83.3
2020-08-01 13:15:00 83.8 22.2 41.2 83.8 83.8 3.5 9.2 5.3 100.4 22.9 0.00 0.1836209 83.5
2020-08-01 13:20:00 84.3 21.9 41.2 84.3 84.3 5.8 8.1 4.7 118.8 63.4 0.00 0.1824836 83.7
2020-08-01 13:25:00 84.1 21.6 40.7 84.1 84.1 2.1 8.0 5.1 164.6 85.8 0.00 0.1821675 83.9
2020-08-01 13:30:00 84.3 21.4 40.6 84.3 84.3 8.3 8.7 5.7 138.2 121.8 0.00 0.1823647 84.1
2020-08-01 13:35:00 85.2 21.5 41.4 85.2 85.2 4.6 7.1 3.1 326.9 123.0 0.00 0.1831297 84.4
2020-08-01 13:40:00 84.8 22.1 41.8 84.8 84.8 5.3 8.3 4.3 345.6 335.6 0.00 0.1830508 84.6
2020-08-01 13:45:00 85.3 24.2 44.7 85.3 85.3 3.7 6.3 3.5 273.1 285.1 0.00 0.1803447 84.8
2020-08-01 13:50:00 85.7 19.9 40.0 85.7 85.7 4.7 7.4 4.9 269.4 257.5 0.00 0.1802955 85.0
2020-08-01 13:55:00 86.3 20.1 40.6 86.3 86.3 4.0 8.7 4.9 327.3 259.4 0.00 0.1840254 85.2
2020-08-01 14:00:00 85.5 21.7 41.9 85.5 85.5 4.4 9.2 5.5 24.1 348.4 0.00 0.1858511 85.5
2020-08-01 14:05:00 85.7 20.7 40.8 85.7 85.7 9.2 9.7 3.7 27.3 73.2 0.00 0.1868993 85.7
2020-08-01 14:10:00 85.7 21.0 41.3 85.7 85.7 3.3 9.9 3.7 299.2 334.5 0.00 0.1852507 85.9
2020-08-01 14:15:00 85.8 22.3 43.0 85.8 85.8 8.8 9.4 6.3 35.2 20.0 0.00 0.1875331 86.1
2020-08-01 14:20:00 86.5 20.8 41.7 86.5 86.5 11.0 12.4 6.6 302.3 333.1 0.00 0.1870647 86.3
2020-08-01 14:25:00 87.1 21.0 42.5 87.1 87.1 3.5 13.5 4.8 284.5 302.6 0.00 0.1850397 86.5
2020-08-01 14:30:00 86.6 19.1 39.5 86.6 86.6 7.8 8.1 4.0 147.1 228.0 0.00 0.1908287 86.8
2020-08-01 14:35:00 86.5 19.1 39.4 86.5 86.5 5.1 8.3 4.1 137.8 190.9 0.00 0.1942280 87.0
2020-08-01 14:40:00 87.0 19.6 40.6 87.0 87.0 4.0 10.3 7.0 285.8 190.4 0.00 0.1901018 87.2
2020-08-01 14:45:00 85.5 19.9 39.7 85.5 85.5 4.6 8.8 5.7 295.6 294.6 0.00 0.1790103 87.4
2020-08-01 14:50:00 86.0 20.7 41.2 86.0 86.0 3.3 7.8 4.1 77.9 19.6 0.00 0.0700781 87.6
2020-08-01 14:55:00 85.2 21.7 41.7 85.2 85.2 8.3 10.3 8.0 56.2 59.8 0.00 0.0657117 87.8
2020-08-01 15:00:00 84.7 20.3 39.6 84.7 84.7 2.1 9.9 7.7 285.1 59.8 0.00 0.0987819 88.0
2020-08-01 15:05:00 85.2 19.4 38.8 85.2 85.2 4.7 10.8 5.8 58.9 60.3 0.00 0.1262736 88.2
2020-08-01 15:10:00 85.2 19.3 38.7 85.2 85.2 5.3 6.9 3.8 40.9 31.1 0.00 0.0504283 88.4
2020-08-01 15:15:00 84.9 21.2 40.9 84.9 84.9 3.8 8.8 5.4 116.3 40.5 0.00 0.0411371 88.6
2020-08-01 15:20:00 84.3 20.7 39.8 84.3 84.3 2.2 8.5 5.6 95.6 66.7 0.00 0.0334317 88.8
2020-08-01 15:25:00 84.5 21.2 40.5 84.5 84.5 3.1 3.3 2.5 81.7 95.8 0.00 0.0386813 88.9
2020-08-01 15:30:00 84.5 23.4 43.1 84.5 84.5 10.5 11.9 7.3 139.4 106.3 0.00 0.0455169 89.0
2020-08-01 15:35:00 84.9 22.3 42.2 84.9 84.9 8.7 11.5 7.8 183.6 131.8 0.00 0.0974445 89.2
2020-08-01 15:40:00 84.7 23.3 43.2 84.7 84.7 7.1 13.1 7.2 116.6 133.6 0.00 0.1183066 89.3
2020-08-01 15:45:00 86.2 22.6 43.6 86.2 86.2 8.5 12.6 9.8 103.7 146.2 0.00 0.1572585 89.4
2020-08-01 15:50:00 85.5 23.1 43.6 85.5 85.5 5.8 10.6 7.6 155.0 166.0 0.00 0.0819309 89.5
2020-08-01 15:55:00 84.5 25.3 45.2 84.5 84.5 5.6 14.0 8.1 111.7 157.3 0.00 0.0547176 89.5
2020-08-01 16:00:00 84.3 24.2 43.9 84.3 84.3 8.7 13.1 9.2 145.2 141.6 0.00 0.0326893 89.5
2020-08-01 16:05:00 83.9 25.1 44.4 83.9 83.9 3.3 9.2 5.3 134.2 147.7 0.00 0.0211445 89.6
2020-08-01 16:10:00 83.8 24.1 43.3 83.8 83.8 6.5 7.2 4.4 112.0 118.3 0.00 0.0151216 89.6
2020-08-01 16:15:00 83.3 24.9 43.7 83.3 83.3 4.2 12.8 5.6 59.0 70.9 0.00 0.0106069 89.6
2020-08-01 16:20:00 83.2 24.1 42.8 83.2 83.2 8.3 9.7 6.6 38.2 60.4 0.00 0.0076461 89.7
2020-08-01 16:25:00 81.1 37.8 53.0 81.1 81.1 11.7 13.9 10.7 48.3 46.5 0.00 0.0062586 89.7
2020-08-01 16:30:00 76.6 43.6 52.8 76.6 76.6 13.3 15.3 10.6 71.3 54.2 0.00 0.0038495 89.6
2020-08-01 16:35:00 74.4 42.6 50.3 74.4 74.4 14.6 24.6 17.4 52.5 52.5 0.00 0.0131287 89.5
2020-08-01 16:40:00 74.9 41.2 49.7 74.9 74.9 11.9 18.1 14.1 53.6 50.4 0.00 0.0346728 89.5
2020-08-01 16:45:00 75.5 35.2 46.1 75.5 75.5 16.5 20.8 14.7 46.3 49.7 0.00 0.0394776 89.6
2020-08-01 16:50:00 76.2 35.8 47.2 76.2 76.2 12.8 19.9 16.0 65.8 43.7 0.00 0.0817969 89.6
2020-08-01 16:55:00 77.7 33.7 46.9 77.7 77.7 14.2 18.5 14.6 57.9 52.7 0.00 0.0934107 89.5
2020-08-01 17:00:00 77.9 30.9 44.8 77.9 77.9 16.4 20.5 15.8 53.2 47.1 0.00 0.0642791 89.5
2020-08-01 17:05:00 76.8 32.2 44.9 76.8 76.8 18.1 18.9 15.7 34.3 39.2 0.00 0.0583206 89.5
2020-08-01 17:10:00 76.4 34.0 46.0 76.4 76.4 11.3 18.5 14.4 45.5 48.1 0.00 0.0557911 89.4
2020-08-01 17:15:00 75.7 34.1 45.4 75.7 75.7 14.6 18.1 15.1 55.0 55.8 0.00 0.0421667 89.3
2020-08-01 17:20:00 75.3 32.6 43.9 75.3 75.3 15.6 18.9 15.1 44.0 52.8 0.00 0.0319348 89.2
2020-08-01 17:25:00 75.2 34.1 44.9 75.2 75.2 16.0 16.0 12.7 47.0 48.2 0.00 0.0259562 89.0
2020-08-01 17:30:00 75.0 34.3 45.0 75.0 75.0 15.3 16.2 12.8 51.5 53.3 0.00 0.0241764 89.0
2020-08-01 17:35:00 74.8 35.8 45.9 74.8 74.8 12.2 16.9 13.7 45.9 56.5 0.00 0.0241122 88.8
2020-08-01 17:40:00 75.2 34.1 45.0 75.2 75.2 15.5 17.2 12.8 54.1 59.3 0.00 0.0244331 88.7
2020-08-01 17:45:00 75.2 35.3 45.9 75.2 75.2 13.1 16.7 13.8 49.3 55.2 0.00 0.0244915 88.6
2020-08-01 17:50:00 74.9 35.7 46.0 74.9 74.9 8.8 16.5 12.5 59.3 60.3 0.00 0.0231424 88.4
2020-08-01 17:55:00 74.6 36.0 45.9 74.6 74.6 12.2 15.6 12.7 60.4 55.7 0.00 0.0184945 88.3
2020-08-01 18:00:00 74.6 33.9 44.3 74.6 74.6 11.3 14.6 10.3 66.1 59.9 0.00 0.0129722 88.2
2020-08-01 18:05:00 74.9 33.8 44.5 74.9 74.9 9.6 11.7 9.8 60.5 55.7 0.00 0.0101069 88.1
2020-08-01 18:10:00 74.8 34.6 45.0 74.8 74.8 8.1 11.5 8.7 49.5 56.2 0.00 0.0109356 87.9
2020-08-01 18:15:00 75.0 34.2 44.9 75.0 75.0 8.1 9.2 7.5 59.9 56.8 0.00 0.0129954 87.8
2020-08-01 18:20:00 75.6 33.0 44.5 75.6 75.6 9.6 11.2 9.7 39.7 54.1 0.00 0.0135348 87.7
2020-08-01 18:25:00 75.8 31.8 43.7 75.8 75.8 13.1 13.1 9.7 53.2 52.4 0.00 0.0131868 87.5
2020-08-01 18:30:00 76.1 32.1 44.2 76.1 76.1 10.1 18.0 13.0 47.4 49.2 0.00 0.0102357 87.4
2020-08-01 18:35:00 75.4 33.1 44.4 75.4 75.4 11.9 14.2 11.5 36.7 45.1 0.00 0.0065605 87.3
2020-08-01 18:40:00 75.1 34.5 45.2 75.1 75.1 8.8 11.7 10.1 29.1 42.8 0.00 0.0042756 87.2
2020-08-01 18:45:00 74.7 34.9 45.1 74.7 74.7 7.4 10.6 8.2 44.1 47.0 0.00 0.0031912 87.1
2020-08-01 18:50:00 74.4 36.1 45.7 74.4 74.4 4.9 9.0 6.7 57.6 54.7 0.00 0.0032264 87.0
2020-08-01 18:55:00 74.2 36.0 45.6 74.2 74.2 5.6 7.2 5.3 53.6 62.7 0.00 0.0040475 86.8
2020-08-01 19:00:00 74.5 36.1 45.8 74.5 74.5 7.4 11.2 7.2 53.6 57.6 0.00 0.0051683 86.7
2020-08-01 19:05:00 74.6 35.3 45.4 74.6 74.6 14.4 15.8 9.6 26.3 45.5 0.00 0.0056714 86.6
2020-08-01 19:10:00 73.7 37.0 45.8 73.7 73.7 11.2 14.6 11.2 57.6 35.8 0.00 0.0055872 86.5
2020-08-01 19:15:00 73.5 36.7 45.4 73.5 73.5 8.8 11.9 9.6 30.9 43.8 0.00 0.0051199 86.4
2020-08-01 19:20:00 73.2 38.0 46.1 73.2 73.2 8.0 11.7 9.4 59.3 47.4 0.00 0.0033306 86.3
2020-08-01 19:25:00 72.7 38.6 46.1 72.7 72.7 3.3 9.6 6.0 82.4 65.8 0.00 0.0013152 86.2
2020-08-01 19:30:00 72.3 38.6 45.7 72.3 72.3 3.5 5.6 4.0 73.5 68.6 0.00 0.0004733 86.1
2020-08-01 19:35:00 71.9 38.0 44.9 71.9 71.9 4.6 4.9 4.0 65.7 67.5 0.00 0.0001387 85.9
2020-08-01 19:40:00 71.9 38.0 44.9 71.9 71.9 2.4 4.7 2.7 108.4 90.5 0.00 0.0000456 85.8
2020-08-01 19:45:00 71.9 37.6 44.7 71.9 71.9 0.0 3.0 1.9 126.4 126.3 0.00 0.0000005 85.7
2020-08-01 19:50:00 71.8 37.5 44.4 71.8 71.8 0.0 0.8 0.0 111.6 101.7 0.00 0.0000000 85.6
2020-08-01 19:55:00 71.6 38.5 45.0 71.6 71.6 3.5 3.7 1.9 218.4 205.0 0.00 0.0000000 85.5
2020-08-01 20:00:00 70.4 44.0 47.5 70.4 70.4 3.3 4.0 3.6 229.7 225.3 0.00 0.0000000 85.4
2020-08-01 20:05:00 69.7 46.7 48.4 69.7 69.7 2.6 3.1 2.4 225.0 228.2 0.00 0.0000000 85.2
2020-08-01 20:10:00 68.6 50.2 49.4 68.6 68.6 2.8 3.0 2.8 242.6 231.1 0.00 0.0000000 85.1
2020-08-01 20:15:00 68.1 47.7 47.5 68.1 68.1 2.6 3.1 2.7 236.4 244.7 0.00 0.0000000 85.0
2020-08-01 20:20:00 68.7 46.5 47.4 68.7 68.7 2.2 2.8 2.2 236.0 233.0 0.00 0.0000000 84.9
2020-08-01 20:25:00 68.9 46.6 47.6 68.9 68.9 2.8 3.0 2.7 247.0 240.5 0.00 0.0000000 84.8
2020-08-01 20:30:00 68.8 47.5 48.1 68.8 68.8 3.8 4.2 3.5 227.7 238.3 0.00 0.0000000 84.7
2020-08-01 20:35:00 68.4 50.8 49.4 68.4 68.4 3.5 4.7 4.0 265.3 253.5 0.00 0.0000000 84.6
2020-08-01 20:40:00 67.9 52.9 50.1 67.9 67.9 3.0 3.7 3.2 283.0 280.7 0.00 0.0000000 84.4
2020-08-01 20:45:00 67.7 51.5 49.2 67.7 67.7 4.7 4.7 4.0 273.9 275.1 0.00 0.0000000 84.3
2020-08-01 20:50:00 68.1 50.3 48.9 68.1 68.1 4.9 5.6 4.7 249.1 263.5 0.00 0.0000000 84.2
2020-08-01 20:55:00 68.2 48.9 48.3 68.2 68.2 4.9 5.8 5.1 253.2 255.9 0.00 0.0000000 84.1
2020-08-01 21:00:00 68.2 49.0 48.3 68.2 68.2 3.5 4.9 4.3 258.6 261.0 0.00 0.0000000 84.0
2020-08-01 21:05:00 68.1 49.9 48.7 68.1 68.1 2.2 3.8 2.9 263.5 264.6 0.00 0.0000000 83.9
2020-08-01 21:10:00 67.7 50.9 48.9 67.7 67.7 0.0 2.2 0.6 238.2 252.5 0.00 0.0000000 83.8
2020-08-01 21:15:00 67.8 49.1 48.0 67.8 67.8 1.9 2.1 0.5 245.1 244.7 0.00 0.0000000 83.7
2020-08-01 21:20:00 68.1 49.1 48.3 68.1 68.1 3.3 3.7 2.9 236.1 243.8 0.00 0.0000000 83.6
2020-08-01 21:25:00 68.2 49.6 48.7 68.2 68.2 2.2 3.7 3.1 233.1 234.2 0.00 0.0000000 83.5
2020-08-01 21:30:00 68.2 49.3 48.5 68.2 68.2 0.0 2.2 0.9 247.6 228.4 0.00 0.0000000 83.4
2020-08-01 21:35:00 68.2 48.8 48.2 68.2 68.2 1.5 1.9 1.3 235.6 231.4 0.00 0.0000000 83.3
2020-08-01 21:40:00 68.2 49.0 48.3 68.2 68.2 2.4 2.4 0.7 282.1 253.7 0.00 0.0000000 83.2
2020-08-01 21:45:00 67.7 50.4 48.7 67.7 67.7 2.8 2.8 2.3 294.2 290.5 0.00 0.0000000 83.1
2020-08-01 21:50:00 67.6 50.7 48.6 67.6 67.6 3.0 4.4 3.3 288.6 291.8 0.00 0.0000000 83.0
2020-08-01 21:55:00 67.2 50.4 48.1 67.2 67.2 2.6 3.7 3.1 291.6 286.5 0.00 0.0000000 82.9
2020-08-01 22:00:00 67.6 50.1 48.4 67.6 67.6 3.0 3.8 3.3 311.1 292.6 0.00 0.0000000 82.8
2020-08-01 22:05:00 67.3 50.1 48.0 67.3 67.3 3.7 4.2 3.4 301.2 294.4 0.00 0.0000000 82.7
2020-08-01 22:10:00 67.6 49.9 48.3 67.6 67.6 3.5 4.2 3.7 291.8 300.8 0.00 0.0000000 82.7
2020-08-01 22:15:00 66.8 53.4 49.3 66.8 66.8 4.2 4.4 3.7 270.2 285.0 0.00 0.0000000 82.6
2020-08-01 22:20:00 66.4 54.5 49.5 66.4 66.4 4.2 4.2 3.7 289.1 280.8 0.00 0.0000000 82.5
2020-08-01 22:25:00 66.5 54.2 49.5 66.5 66.5 4.6 5.1 4.3 288.7 286.3 0.00 0.0000000 82.4
2020-08-01 22:30:00 66.8 54.1 49.6 66.8 66.8 3.5 4.7 3.6 300.7 295.9 0.00 0.0000000 82.3
2020-08-01 22:35:00 66.7 53.3 49.2 66.7 66.7 3.7 3.7 3.2 303.6 292.5 0.00 0.0000000 82.2
2020-08-01 22:40:00 67.5 51.9 49.2 67.5 67.5 3.3 4.4 3.7 294.7 298.7 0.00 0.0000000 82.1
2020-08-01 22:45:00 67.3 53.7 49.9 67.3 67.3 2.2 3.5 2.7 275.3 288.5 0.00 0.0000000 82.0
2020-08-01 22:50:00 65.3 61.8 51.9 65.3 65.3 4.0 4.4 2.9 202.5 235.8 0.00 0.0000000 81.9
2020-08-01 22:55:00 63.7 66.1 52.2 63.7 63.7 3.0 4.0 3.6 204.2 216.0 0.00 0.0000000 81.8
2020-08-01 23:00:00 63.2 65.2 51.3 63.2 63.2 4.7 4.9 4.2 241.8 223.3 0.00 0.0000000 81.8
2020-08-01 23:05:00 63.7 62.7 50.7 63.7 63.7 3.8 4.7 4.0 237.7 243.4 0.00 0.0000000 81.7
2020-08-01 23:10:00 64.1 61.5 50.6 64.1 64.1 3.8 4.0 3.9 252.2 244.3 0.00 0.0000000 81.6
2020-08-01 23:15:00 64.0 62.4 50.9 64.0 64.0 2.6 4.0 3.3 271.2 261.6 0.00 0.0000000 81.5
2020-08-01 23:20:00 64.2 58.3 49.2 64.2 64.2 4.6 4.6 3.0 302.0 285.4 0.00 0.0000000 81.4
2020-08-01 23:25:00 65.2 57.5 49.8 65.2 65.2 2.8 4.7 3.9 295.8 286.3 0.00 0.0000000 81.3
2020-08-01 23:30:00 64.3 60.5 50.4 64.3 64.3 3.0 4.6 3.7 286.4 277.8 0.00 0.0000000 81.3
2020-08-01 23:35:00 64.4 59.1 49.8 64.4 64.4 3.7 4.2 3.7 284.8 273.7 0.00 0.0000000 81.2
2020-08-01 23:40:00 64.3 60.4 50.3 64.3 64.3 3.5 4.2 3.7 275.6 276.0 0.00 0.0000000 81.1
2020-08-01 23:45:00 63.7 61.2 50.1 63.7 63.7 3.7 3.7 3.3 259.0 268.5 0.00 0.0000000 81.0
2020-08-01 23:50:00 63.0 64.2 50.7 63.0 63.0 3.0 3.7 3.0 249.2 249.6 0.00 0.0000000 80.9
2020-08-01 23:55:00 62.5 64.3 50.3 62.5 62.5 2.8 3.3 2.9 282.6 274.8 0.00 0.0000000 80.9
2020-08-02 00:00:00 61.9 66.9 50.8 61.9 61.9 2.6 3.0 2.2 233.1 230.7 0.00 0.0000000 80.8

Data is courtesy of the NM Climate Center. DO NOT USE IN LEGAL PROCEEDINGS.